createdAt,value
2022-08-23T00:00:52.642Z,3.00
2022-08-23T00:04:00.934Z,3.33
2022-08-23T00:07:07.068Z,3.45
2022-08-23T00:10:14.841Z,3.63
2022-08-23T00:13:19.193Z,3.25
2022-08-23T00:16:23.585Z,3.10
2022-08-23T00:19:27.898Z,3.10
2022-08-23T00:22:31.679Z,3.20
2022-08-23T00:25:35.815Z,3.00
2022-08-23T00:28:40.629Z,3.10
2022-08-23T00:31:45.634Z,3.10
2022-08-23T00:34:49.893Z,3.00
2022-08-23T00:38:32.562Z,2.80
2022-08-23T00:41:18.464Z,3.25
2022-08-23T00:44:47.692Z,3.10
2022-08-23T00:47:52.120Z,2.97
2022-08-23T00:51:21.313Z,3.00
2022-08-23T00:54:28.687Z,3.38
2022-08-23T00:57:34.086Z,3.28
2022-08-23T01:00:38.192Z,3.00
2022-08-23T01:03:44.933Z,3.33
2022-08-23T01:07:02.488Z,3.63
2022-08-23T01:10:19.996Z,3.53
2022-08-23T01:13:48.765Z,4.03
2022-08-23T01:17:14.655Z,3.47
2022-08-23T01:20:26.978Z,3.45
2022-08-23T01:23:37.612Z,3.58
2022-08-23T01:26:42.240Z,3.60
2022-08-23T01:29:46.211Z,3.33
2022-08-23T01:32:55.926Z,3.53
2022-08-23T01:36:02.186Z,3.50
2022-08-23T01:39:08.362Z,3.70
2022-08-23T01:42:12.416Z,3.33
2022-08-23T01:45:17.094Z,3.55
2022-08-23T01:48:22.219Z,3.58
2022-08-23T01:51:26.472Z,3.83
2022-08-23T01:54:30.554Z,3.35
2022-08-23T01:57:35.181Z,3.80
2022-08-23T02:00:41.980Z,3.40
2022-08-23T02:03:46.238Z,3.45
2022-08-23T02:06:53.584Z,3.67
2022-08-23T02:09:58.283Z,3.65
2022-08-23T02:13:01.976Z,3.40
2022-08-23T02:16:05.990Z,3.42
2022-08-23T02:19:12.809Z,3.45
2022-08-23T02:22:16.606Z,3.60
2022-08-23T02:25:21.153Z,3.80
2022-08-23T02:28:25.344Z,3.38
2022-08-23T02:31:29.497Z,3.22
2022-08-23T02:34:34.121Z,3.20
2022-08-23T02:37:38.269Z,3.70
2022-08-23T02:40:42.546Z,3.58
2022-08-23T02:43:46.876Z,3.40
2022-08-23T02:46:50.993Z,3.40
2022-08-23T02:49:55.007Z,3.40
2022-08-23T02:52:59.731Z,3.05
2022-08-23T02:56:04.702Z,3.78
2022-08-23T02:59:08.795Z,3.50
2022-08-23T03:02:13.360Z,3.70
2022-08-23T03:05:17.452Z,3.45
2022-08-23T03:08:22.892Z,3.60
2022-08-23T03:11:27.191Z,3.58
2022-08-23T03:14:31.271Z,3.70
2022-08-23T03:17:35.673Z,3.58
2022-08-23T03:20:41.646Z,3.92
2022-08-23T03:23:45.590Z,3.80
2022-08-23T03:26:49.636Z,3.53
2022-08-23T03:29:54.417Z,3.60
2022-08-23T03:33:00.315Z,4.00
2022-08-23T03:36:06.439Z,3.58
2022-08-23T03:39:10.580Z,3.90
2022-08-23T03:42:14.552Z,3.70
2022-08-23T03:45:19.085Z,3.80
2022-08-23T03:48:23.336Z,3.70
2022-08-23T03:51:29.603Z,3.58
2022-08-23T03:54:33.566Z,3.75
2022-08-23T03:57:37.196Z,3.70
2022-08-23T04:00:41.034Z,3.67
2022-08-23T04:03:45.118Z,3.85
2022-08-23T04:06:50.401Z,3.92
2022-08-23T04:09:55.392Z,4.00
2022-08-23T04:12:59.696Z,4.45
2022-08-23T04:16:05.035Z,4.10
2022-08-23T04:19:13.203Z,3.95
2022-08-23T04:22:19.367Z,4.25
2022-08-23T04:25:34.314Z,3.83
2022-08-23T04:28:39.328Z,4.10
2022-08-23T04:31:46.514Z,3.80
2022-08-23T04:34:53.351Z,4.07
2022-08-23T04:37:57.497Z,3.75
2022-08-23T04:41:20.537Z,4.20
2022-08-23T04:44:24.884Z,4.05
2022-08-23T04:47:29.520Z,4.10
2022-08-23T04:50:33.314Z,3.95
2022-08-23T04:53:38.031Z,4.22
2022-08-23T04:56:42.138Z,4.10
2022-08-23T04:59:46.449Z,4.15
2022-08-23T05:02:50.965Z,4.00
2022-08-23T05:05:55.377Z,3.42
2022-08-23T05:08:59.145Z,4.75
2022-08-23T05:12:04.005Z,4.32
2022-08-23T05:15:12.265Z,4.32
2022-08-23T05:18:16.509Z,4.35
2022-08-23T05:21:23.497Z,3.97
2022-08-23T05:24:27.508Z,4.10
2022-08-23T05:27:31.792Z,4.28
2022-08-23T05:30:35.935Z,3.88
2022-08-23T05:33:41.302Z,4.18
2022-08-23T05:36:48.143Z,3.80
2022-08-23T05:39:59.658Z,4.00
2022-08-23T05:43:03.667Z,3.90
2022-08-23T05:46:18.368Z,4.18
2022-08-23T05:49:23.692Z,3.92
2022-08-23T05:52:27.794Z,4.05
2022-08-23T05:55:34.603Z,4.25
2022-08-23T05:58:39.425Z,4.40
2022-08-23T06:01:44.170Z,4.38
2022-08-23T06:04:48.306Z,4.30
2022-08-23T06:07:52.139Z,4.45
2022-08-23T06:11:03.290Z,4.22
2022-08-23T06:14:09.016Z,4.30
2022-08-23T06:17:13.335Z,4.10
2022-08-23T06:20:17.760Z,3.92
2022-08-23T06:23:22.050Z,4.30
2022-08-23T06:26:33.960Z,3.80
2022-08-23T06:29:38.565Z,3.47
2022-08-23T06:32:42.997Z,3.97
2022-08-23T06:35:49.247Z,3.55
2022-08-23T06:38:54.565Z,4.10
2022-08-23T06:42:34.456Z,3.60
2022-08-23T06:45:35.208Z,3.55
2022-08-23T06:48:39.919Z,3.40
2022-08-23T06:51:49.168Z,3.00
2022-08-23T06:54:53.539Z,3.42
2022-08-23T06:57:57.871Z,3.20
2022-08-23T07:01:34.997Z,3.50
2022-08-23T07:04:40.045Z,4.03
2022-08-23T07:07:44.344Z,3.40
2022-08-23T07:10:48.778Z,3.15
2022-08-23T07:13:53.174Z,3.47
2022-08-23T07:17:00.505Z,3.42
2022-08-23T07:20:05.209Z,3.53
2022-08-23T07:23:09.632Z,3.28
2022-08-23T07:26:16.403Z,3.80
2022-08-23T07:29:22.359Z,3.53
2022-08-23T07:32:26.201Z,3.58
2022-08-23T07:35:30.420Z,3.72
2022-08-23T07:38:35.233Z,4.20
2022-08-23T07:41:39.598Z,4.47
2022-08-23T07:44:43.781Z,4.00
2022-08-23T07:47:50.434Z,4.18
2022-08-23T07:50:58.547Z,7.70
2022-08-23T07:54:05.889Z,4.38
2022-08-23T07:57:09.830Z,3.95
2022-08-23T08:00:15.387Z,4.38
2022-08-23T08:03:21.339Z,4.35
2022-08-23T08:06:29.342Z,4.07
2022-08-23T08:09:33.327Z,4.13
2022-08-23T08:12:37.980Z,5.43
2022-08-23T08:15:42.969Z,4.30
2022-08-23T08:18:46.848Z,3.85
2022-08-23T08:21:51.359Z,3.67
2022-08-23T08:24:55.728Z,3.80
2022-08-23T08:28:00.399Z,4.22
2022-08-23T08:31:05.796Z,4.15
2022-08-23T08:34:10.156Z,3.58
2022-08-23T08:37:14.151Z,3.60
2022-08-23T08:40:24.800Z,3.50
2022-08-23T08:44:03.224Z,3.50
2022-08-23T08:47:14.183Z,3.20
2022-08-23T08:50:24.262Z,2.90
2022-08-23T08:53:36.913Z,2.60
2022-08-23T08:56:42.158Z,2.67
2022-08-23T08:59:55.986Z,2.67
2022-08-23T09:03:04.344Z,2.10
2022-08-23T09:06:23.986Z,2.60
2022-08-23T09:09:49.785Z,2.58
2022-08-23T09:13:27.894Z,2.20
2022-08-23T09:16:37.039Z,2.72
2022-08-23T09:19:42.267Z,2.50
2022-08-23T09:22:52.274Z,2.20
2022-08-23T09:26:03.850Z,2.25
2022-08-23T09:29:25.805Z,1.95
2022-08-23T09:32:35.789Z,2.65
2022-08-23T09:35:39.910Z,2.30
2022-08-23T09:38:56.728Z,2.10
2022-08-23T09:42:01.222Z,2.20
2022-08-23T09:45:25.029Z,2.00
2022-08-23T09:51:42.877Z,2.30
2022-08-23T09:55:02.888Z,2.10
2022-08-23T09:58:23.624Z,2.15
2022-08-23T10:01:31.873Z,2.28
2022-08-23T10:05:02.952Z,2.20
2022-08-23T10:08:10.494Z,2.40
2022-08-23T10:11:23.824Z,2.28
2022-08-23T10:14:31.249Z,2.35
2022-08-23T10:17:52.925Z,2.40
2022-08-23T10:21:04.782Z,2.30
2022-08-23T10:24:16.503Z,2.40
2022-08-23T10:28:28.839Z,2.28
2022-08-23T10:31:59.304Z,2.17
2022-08-23T10:35:32.125Z,2.40
2022-08-23T10:38:46.238Z,2.20
2022-08-23T10:42:18.554Z,2.30
2022-08-23T10:45:31.522Z,2.10
2022-08-23T10:49:02.853Z,2.50
2022-08-23T10:52:12.959Z,2.20
2022-08-23T10:55:35.577Z,2.10
2022-08-23T10:58:55.745Z,2.38
2022-08-23T11:02:08.918Z,1.85
2022-08-23T11:05:22.228Z,1.70
2022-08-23T11:08:38.148Z,2.13
2022-08-23T11:11:47.603Z,1.85
2022-08-23T11:15:07.498Z,2.00
2022-08-23T11:18:34.046Z,1.95
2022-08-23T11:21:38.491Z,1.73
2022-08-23T11:25:04.872Z,2.20
2022-08-23T11:28:24.050Z,1.83
2022-08-23T11:31:34.719Z,1.85
2022-08-23T11:35:12.249Z,2.10
2022-08-23T11:38:22.636Z,1.90
2022-08-23T11:41:34.215Z,1.90
2022-08-23T11:44:46.901Z,1.90
2022-08-23T11:48:35.593Z,2.03
2022-08-23T11:52:24.567Z,2.25
2022-08-23T11:55:51.208Z,1.98
2022-08-23T11:59:24.345Z,2.03
2022-08-23T12:03:05.960Z,2.10
2022-08-23T12:06:32.614Z,2.00
2022-08-23T12:09:41.118Z,1.70
2022-08-23T12:12:47.243Z,1.90
2022-08-23T12:16:16.988Z,1.90
2022-08-23T12:19:40.272Z,2.00
2022-08-23T12:23:13.150Z,1.98
2022-08-23T12:26:38.437Z,1.75
2022-08-23T12:30:05.496Z,2.00
2022-08-23T12:33:28.692Z,1.70
2022-08-23T12:36:55.006Z,2.42
2022-08-23T12:40:02.355Z,2.05
2022-08-23T12:43:22.510Z,1.88
2022-08-23T12:46:37.702Z,2.10
2022-08-23T12:49:43.006Z,1.85
2022-08-23T12:52:59.998Z,1.88
2022-08-23T12:56:08.795Z,1.92
2022-08-23T12:59:32.618Z,1.90
2022-08-23T13:02:37.385Z,1.95
2022-08-23T13:05:45.900Z,2.00
2022-08-23T13:09:04.392Z,1.95
2022-08-23T13:12:09.806Z,1.92
2022-08-23T13:15:54.293Z,1.80
2022-08-23T13:19:22.515Z,1.92
2022-08-23T13:22:27.030Z,1.63
2022-08-23T13:25:38.633Z,1.85
2022-08-23T13:29:10.459Z,2.00
2022-08-23T13:32:34.083Z,1.95
2022-08-23T13:35:44.625Z,1.90
2022-08-23T13:38:51.337Z,1.80
2022-08-23T13:41:55.753Z,1.60
2022-08-23T13:45:12.697Z,1.70
2022-08-23T13:48:27.082Z,2.00
2022-08-23T13:52:11.680Z,1.92
2022-08-23T13:55:22.753Z,1.60
2022-08-23T13:58:34.259Z,1.65
2022-08-23T14:01:38.723Z,1.80
2022-08-23T14:04:43.289Z,2.03
2022-08-23T14:07:52.708Z,1.50
2022-08-23T14:10:56.518Z,1.70
2022-08-23T14:14:01.164Z,1.90
2022-08-23T14:17:05.929Z,1.60
2022-08-23T14:20:43.762Z,1.40
2022-08-23T14:23:42.210Z,1.60
2022-08-23T14:26:50.380Z,1.67
2022-08-23T14:29:56.119Z,1.60
2022-08-23T14:33:00.594Z,1.88
2022-08-23T14:36:06.334Z,1.60
2022-08-23T14:39:13.616Z,1.40
2022-08-23T14:42:22.754Z,1.50
2022-08-23T14:45:27.429Z,1.60
2022-08-23T14:48:32.658Z,1.60
2022-08-23T14:51:43.416Z,1.63
2022-08-23T14:54:49.540Z,1.60
2022-08-23T14:57:55.045Z,1.60
2022-08-23T15:00:59.632Z,1.48
2022-08-23T15:04:04.475Z,1.65
2022-08-23T15:07:24.269Z,1.92
2022-08-23T15:13:54.723Z,2.03
2022-08-23T15:17:00.755Z,1.50
2022-08-23T15:20:05.817Z,1.83
2022-08-23T15:23:10.110Z,1.60
2022-08-23T15:26:17.888Z,1.80
2022-08-23T15:29:22.039Z,1.70
2022-08-23T15:32:26.569Z,1.50
2022-08-23T15:35:39.849Z,1.92
2022-08-23T15:38:47.706Z,1.77
2022-08-23T15:41:51.963Z,1.52
2022-08-23T15:44:55.937Z,1.60
2022-08-23T15:48:01.551Z,1.70
2022-08-23T15:51:06.252Z,1.70
2022-08-23T15:54:10.539Z,2.10
2022-08-23T15:57:23.296Z,1.98
2022-08-23T16:00:28.221Z,2.00
2022-08-23T16:03:33.166Z,1.60
2022-08-23T16:06:39.442Z,1.65
2022-08-23T16:09:44.070Z,1.90
2022-08-23T16:12:48.244Z,1.80
2022-08-23T16:15:53.150Z,1.90
2022-08-23T16:18:58.496Z,1.80
2022-08-23T16:22:02.700Z,1.83
2022-08-23T16:25:07.676Z,2.17
2022-08-23T16:28:11.691Z,1.80
2022-08-23T16:31:16.669Z,1.88
2022-08-23T16:34:21.492Z,1.60
2022-08-23T16:37:25.685Z,1.80
2022-08-23T16:40:29.602Z,1.90
2022-08-23T16:43:34.194Z,1.73
2022-08-23T16:46:42.619Z,1.88
2022-08-23T16:49:46.685Z,1.90
2022-08-23T16:52:50.441Z,2.05
2022-08-23T16:55:54.676Z,1.95
2022-08-23T16:58:59.455Z,2.20
2022-08-23T17:02:10.738Z,2.20
2022-08-23T17:05:17.799Z,2.00
2022-08-23T17:08:22.287Z,1.90
2022-08-23T17:11:32.793Z,2.10
2022-08-23T17:14:37.523Z,1.63
2022-08-23T17:17:44.125Z,1.80
2022-08-23T17:20:48.008Z,2.00
2022-08-23T17:23:52.570Z,2.20
2022-08-23T17:26:56.584Z,1.77
2022-08-23T17:30:00.706Z,1.90
2022-08-23T17:33:05.292Z,1.80
2022-08-23T17:36:31.313Z,2.00
2022-08-23T17:39:36.579Z,1.80
2022-08-23T17:42:40.902Z,2.00
2022-08-23T17:45:47.668Z,1.70
2022-08-23T17:48:51.848Z,1.80
2022-08-23T17:51:55.941Z,1.75
2022-08-23T17:55:00.184Z,1.88
2022-08-23T17:58:05.769Z,2.03
2022-08-23T18:01:09.849Z,1.90
2022-08-23T18:04:14.514Z,1.80
2022-08-23T18:07:18.678Z,1.83
2022-08-23T18:10:25.385Z,2.13
2022-08-23T18:13:29.300Z,1.80
2022-08-23T18:16:35.753Z,2.00
2022-08-23T18:19:39.865Z,2.10
2022-08-23T18:22:43.733Z,2.45
2022-08-23T18:25:48.091Z,2.20
2022-08-23T18:28:52.072Z,2.05
2022-08-23T18:31:56.364Z,2.25
2022-08-23T18:35:00.524Z,2.30
2022-08-23T18:38:06.510Z,2.30
2022-08-23T18:41:13.316Z,2.15
2022-08-23T18:44:20.435Z,2.30
2022-08-23T18:47:24.454Z,2.05
2022-08-23T18:50:28.970Z,2.15
2022-08-23T18:53:33.363Z,2.47
2022-08-23T18:56:37.442Z,2.53
2022-08-23T18:59:41.524Z,2.35
2022-08-23T19:02:45.638Z,2.42
2022-08-23T19:05:49.859Z,2.38
2022-08-23T19:08:54.605Z,2.35
2022-08-23T19:12:00.521Z,2.20
2022-08-23T19:15:05.126Z,2.53
2022-08-23T19:18:10.878Z,2.63
2022-08-23T19:21:18.835Z,2.40
2022-08-23T19:24:24.123Z,2.40
2022-08-23T19:27:31.692Z,2.70
2022-08-23T19:30:36.133Z,2.90
2022-08-23T19:33:41.361Z,2.63
2022-08-23T19:36:51.291Z,2.45
2022-08-23T19:40:05.508Z,2.60
2022-08-23T19:43:10.212Z,2.58
2022-08-23T19:46:17.942Z,2.63
2022-08-23T19:49:23.037Z,2.95
2022-08-23T19:52:27.069Z,2.75
2022-08-23T19:55:31.997Z,2.50
2022-08-23T19:58:36.081Z,2.75
2022-08-23T20:01:40.305Z,3.58
2022-08-23T20:04:44.655Z,2.90
2022-08-23T20:07:49.349Z,2.45
2022-08-23T20:10:53.411Z,2.60
2022-08-23T20:13:59.226Z,2.58
2022-08-23T20:17:06.558Z,3.00
2022-08-23T20:20:11.591Z,2.70
2022-08-23T20:23:34.245Z,2.85
2022-08-23T20:26:42.859Z,2.55
2022-08-23T20:29:46.849Z,2.53
2022-08-23T20:32:51.028Z,2.80
2022-08-23T20:35:55.341Z,2.80
2022-08-23T20:39:00.877Z,3.05
2022-08-23T20:42:05.390Z,3.30
2022-08-23T20:45:12.312Z,2.90
2022-08-23T20:48:16.428Z,2.72
2022-08-23T20:51:21.103Z,3.30
2022-08-23T20:54:25.795Z,3.08
2022-08-23T20:57:32.038Z,3.20
2022-08-23T21:00:42.831Z,3.70
2022-08-23T21:03:47.334Z,3.30
2022-08-23T21:06:53.644Z,3.67
2022-08-23T21:09:58.827Z,3.80
2022-08-23T21:13:05.069Z,3.60
2022-08-23T21:16:16.317Z,3.83
2022-08-23T21:19:20.704Z,4.10
2022-08-23T21:22:31.896Z,4.20
2022-08-23T21:25:36.877Z,4.43
2022-08-23T21:28:40.764Z,4.10
2022-08-23T21:31:44.823Z,3.80
2022-08-23T21:34:52.337Z,3.90
2022-08-23T21:37:56.623Z,4.10
2022-08-23T21:41:02.762Z,3.80
2022-08-23T21:44:10.538Z,3.75
2022-08-23T21:47:14.407Z,4.13
2022-08-23T21:50:19.321Z,4.30
2022-08-23T21:53:28.832Z,3.97
2022-08-23T21:56:32.964Z,3.95
2022-08-23T21:59:37.223Z,4.03
2022-08-23T22:02:42.274Z,3.58
2022-08-23T22:05:47.126Z,3.83
2022-08-23T22:08:51.668Z,3.80
2022-08-23T22:11:55.376Z,4.07
2022-08-23T22:14:59.743Z,4.50
2022-08-23T22:18:04.807Z,4.30
2022-08-23T22:21:09.040Z,4.90
2022-08-23T22:24:14.251Z,4.43
2022-08-23T22:27:19.132Z,4.55
2022-08-23T22:30:24.839Z,4.20
2022-08-23T22:33:29.508Z,4.38
2022-08-23T22:36:33.652Z,4.75
2022-08-23T22:39:38.205Z,4.60
2022-08-23T22:42:42.245Z,4.55
2022-08-23T22:45:55.062Z,4.40
2022-08-23T22:49:00.175Z,4.80
2022-08-23T22:52:05.231Z,4.40
2022-08-23T22:55:09.481Z,4.13
2022-08-23T22:58:13.323Z,4.05
2022-08-23T23:01:19.807Z,3.90
2022-08-23T23:04:26.843Z,4.05
2022-08-23T23:07:51.127Z,4.10
2022-08-23T23:11:00.582Z,4.40
2022-08-23T23:14:06.323Z,4.28
2022-08-23T23:17:10.520Z,4.55
2022-08-23T23:20:33.465Z,3.97
2022-08-23T23:23:37.794Z,4.20
2022-08-23T23:26:42.503Z,4.13
2022-08-23T23:29:51.354Z,4.45
2022-08-23T23:32:56.600Z,3.80
2022-08-23T23:36:01.263Z,4.20
2022-08-23T23:39:07.714Z,4.38
2022-08-23T23:42:11.721Z,4.10
2022-08-23T23:45:16.630Z,4.05
2022-08-23T23:48:21.090Z,4.55
2022-08-23T23:51:28.954Z,4.97
2022-08-23T23:54:35.449Z,4.47
2022-08-23T23:57:39.371Z,4.53
